Time;durP1;ratioP1;P1;durP2;ratioP2;P2;SDS_P1;SDS_P2;PMS_P1;PMS_P2;Temp;Humidity;BMP_temperature;BMP_pressure;BME280_temperature;BME280_humidity;BME280_pressure;Samples;Min_cycle;Max_cycle;Signal;HPM_P1;HPM_P2
2022/07/31 00:01:25;;;;;;;5.68;2.67;;;;;;;;;;4973755;28;20039;-63
2022/07/31 00:03:51;;;;;;;7.50;2.80;;;;;;;;;;4991493;28;20053;-64
2022/07/31 00:06:18;;;;;;;3.40;2.40;;;;;;;;;;4991555;28;20474;-64
2022/07/31 00:08:44;;;;;;;6.03;2.42;;;;;;;;;;4991281;28;20050;-63
2022/07/31 00:11:10;;;;;;;3.65;2.63;;;;;;;;;;4973894;28;20118;-63
2022/07/31 00:13:36;;;;;;;3.60;2.40;;;;;;;;;;4974113;28;20531;-63
2022/07/31 00:16:03;;;;;;;3.88;2.78;;;;;;;;;;4991637;28;20412;-64
2022/07/31 00:18:29;;;;;;;2.50;2.30;;;;;;;;;;4994761;28;20118;-64
2022/07/31 00:20:55;;;;;;;3.97;2.75;;;;;;;;;;4977496;28;20134;-64
2022/07/31 00:23:21;;;;;;;5.28;2.67;;;;;;;;;;4994677;28;20190;-64
2022/07/31 00:25:48;;;;;;;5.32;2.70;;;;;;;;;;4994953;28;20057;-64
2022/07/31 00:28:14;;;;;;;7.30;2.63;;;;;;;;;;4977142;28;20042;-64
2022/07/31 00:30:40;;;;;;;5.53;2.70;;;;;;;;;;4994620;28;20078;-64
2022/07/31 00:33:06;;;;;;;4.60;2.92;;;;;;;;;;4977361;28;20050;-64
2022/07/31 00:35:32;;;;;;;5.88;2.80;;;;;;;;;;4994601;28;20198;-64
2022/07/31 00:37:58;;;;;;;3.42;1.98;;;;;;;;;;4994636;28;20066;-64
2022/07/31 00:40:24;;;;;;;5.78;2.75;;;;;;;;;;4976543;28;20034;-64
2022/07/31 00:42:50;;;;;;;3.13;2.80;;;;;;;;;;4994592;28;20045;-64
2022/07/31 00:45:16;;;;;;;5.47;2.70;;;;;;;;;;4977124;28;20101;-64
2022/07/31 00:47:42;;;;;;;6.70;2.83;;;;;;;;;;4976346;28;20112;-64
2022/07/31 00:50:09;;;;;;;5.15;2.42;;;;;;;;;;4976842;28;20500;-64
2022/07/31 00:52:35;;;;;;;4.55;2.58;;;;;;;;;;4976840;28;20605;-64
2022/07/31 00:55:01;;;;;;;5.65;2.35;;;;;;;;;;4976362;28;20085;-64
2022/07/31 00:57:27;;;;;;;6.72;2.60;;;;;;;;;;4976682;28;20105;-64
2022/07/31 00:59:53;;;;;;;3.97;2.10;;;;;;;;;;4994305;28;20450;-64
2022/07/31 01:02:19;;;;;;;5.05;2.63;;;;;;;;;;4976425;28;20046;-64
2022/07/31 01:04:45;;;;;;;4.07;2.60;;;;;;;;;;4976529;28;20034;-64
2022/07/31 01:07:11;;;;;;;5.07;2.60;;;;;;;;;;4994155;28;20555;-64
2022/07/31 01:09:37;;;;;;;4.22;2.47;;;;;;;;;;4993272;28;20461;-64
2022/07/31 01:12:13;;;;;;;4.65;3.03;;;;;;;;;;4976674;28;20504;-64
2022/07/31 01:14:40;;;;;;;5.85;2.50;;;;;;;;;;4993763;28;20411;-64
2022/07/31 01:17:08;;;;;;;3.95;2.38;;;;;;;;;;4993488;28;20042;-64
2022/07/31 01:19:41;;;;;;;4.85;2.53;;;;;;;;;;4976348;28;20049;-64
2022/07/31 01:22:18;;;;;;;4.85;2.42;;;;;;;;;;4993937;28;20046;-64
2022/07/31 01:25:04;;;;;;;6.00;3.05;;;;;;;;;;4975795;28;20137;-64
2022/07/31 01:27:37;;;;;;;5.22;2.80;;;;;;;;;;4956202;28;20054;-64
2022/07/31 01:30:03;;;;;;;6.35;3.22;;;;;;;;;;4973486;28;20130;-64
2022/07/31 01:32:39;;;;;;;4.25;2.83;;;;;;;;;;4956950;28;20474;-64
2022/07/31 01:35:16;;;;;;;4.57;2.88;;;;;;;;;;4956685;28;20081;-64
2022/07/31 01:37:44;;;;;;;4.82;2.80;;;;;;;;;;4956315;28;20038;-64
2022/07/31 01:40:15;;;;;;;4.10;3.30;;;;;;;;;;4956651;28;20047;-64
2022/07/31 01:42:43;;;;;;;4.25;3.05;;;;;;;;;;4986093;28;20038;-64
2022/07/31 01:45:11;;;;;;;6.30;3.17;;;;;;;;;;4975342;28;20566;-64
2022/07/31 01:47:39;;;;;;;6.88;2.83;;;;;;;;;;4992948;28;20058;-64
2022/07/31 01:50:07;;;;;;;5.13;3.25;;;;;;;;;;4975535;28;20050;-64
2022/07/31 01:52:33;;;;;;;5.65;3.00;;;;;;;;;;4993020;28;20046;-64
2022/07/31 01:55:00;;;;;;;5.28;2.90;;;;;;;;;;4993315;28;20043;-64
2022/07/31 01:57:27;;;;;;;4.45;3.17;;;;;;;;;;4992949;28;20088;-64
2022/07/31 01:59:55;;;;;;;6.97;2.92;;;;;;;;;;4992766;28;20054;-64
2022/07/31 02:02:21;;;;;;;5.35;2.85;;;;;;;;;;4975664;28;20093;-64
2022/07/31 02:04:48;;;;;;;3.17;2.88;;;;;;;;;;4992662;28;20065;-64
2022/07/31 02:07:15;;;;;;;6.32;3.03;;;;;;;;;;4991739;28;20042;-64
2022/07/31 02:09:45;;;;;;;3.22;2.92;;;;;;;;;;4975166;28;20050;-64
2022/07/31 02:12:12;;;;;;;4.78;2.70;;;;;;;;;;4958784;28;20385;-63
2022/07/31 02:14:42;;;;;;;4.55;2.58;;;;;;;;;;4991934;28;20042;-63
2022/07/31 02:17:08;;;;;;;4.22;3.00;;;;;;;;;;4974626;28;20057;-63
2022/07/31 02:19:36;;;;;;;5.20;3.22;;;;;;;;;;4974898;28;20049;-64
2022/07/31 02:22:02;;;;;;;3.65;3.30;;;;;;;;;;4974411;28;20061;-64
2022/07/31 02:24:28;;;;;;;5.63;3.33;;;;;;;;;;4992648;28;20042;-64
2022/07/31 02:26:54;;;;;;;5.53;3.40;;;;;;;;;;4992374;28;20108;-64
2022/07/31 02:29:21;;;;;;;5.65;3.55;;;;;;;;;;4992251;28;20045;-64
2022/07/31 02:31:48;;;;;;;8.20;4.03;;;;;;;;;;4974899;28;20552;-64
2022/07/31 02:34:14;;;;;;;8.40;3.40;;;;;;;;;;4992712;28;20062;-63
2022/07/31 02:36:41;;;;;;;7.65;3.53;;;;;;;;;;4992018;28;20043;-64
2022/07/31 02:39:08;;;;;;;7.95;4.15;;;;;;;;;;4992470;28;20046;-63
2022/07/31 02:41:35;;;;;;;6.13;3.28;;;;;;;;;;4974881;28;20074;-63
2022/07/31 02:44:02;;;;;;;4.30;3.67;;;;;;;;;;4974741;28;20038;-63
2022/07/31 02:46:28;;;;;;;7.22;3.85;;;;;;;;;;4991848;28;20046;-63
2022/07/31 02:48:55;;;;;;;5.00;3.30;;;;;;;;;;4974778;28;20051;-63
2022/07/31 02:51:21;;;;;;;7.60;3.58;;;;;;;;;;4974263;28;20053;-63
2022/07/31 02:53:48;;;;;;;7.97;4.57;;;;;;;;;;4959020;28;20034;-63
2022/07/31 02:56:15;;;;;;;6.28;3.55;;;;;;;;;;4992315;28;20053;-63
2022/07/31 02:58:41;;;;;;;4.47;3.88;;;;;;;;;;4974800;28;20136;-63
2022/07/31 03:01:07;;;;;;;4.25;3.83;;;;;;;;;;4992451;28;20073;-63
2022/07/31 03:03:33;;;;;;;7.45;4.18;;;;;;;;;;4974617;28;20046;-63
2022/07/31 03:06:00;;;;;;;4.95;4.10;;;;;;;;;;4974446;28;20053;-63
2022/07/31 03:08:28;;;;;;;5.55;3.78;;;;;;;;;;4974135;28;20046;-63
2022/07/31 03:10:55;;;;;;;5.93;3.92;;;;;;;;;;4992162;28;20042;-63
2022/07/31 03:13:22;;;;;;;6.18;3.95;;;;;;;;;;4992292;28;20072;-63
2022/07/31 03:15:48;;;;;;;6.63;4.18;;;;;;;;;;4991763;28;20043;-63
2022/07/31 03:18:15;;;;;;;4.32;3.88;;;;;;;;;;4974414;28;20125;-63
2022/07/31 03:20:45;;;;;;;4.55;3.67;;;;;;;;;;4992132;28;20045;-63
2022/07/31 03:23:12;;;;;;;4.45;3.72;;;;;;;;;;4991820;28;20045;-63
2022/07/31 03:25:38;;;;;;;6.15;4.32;;;;;;;;;;4974359;28;20046;-64
2022/07/31 03:28:04;;;;;;;5.72;4.13;;;;;;;;;;4974531;28;20046;-63
2022/07/31 03:30:30;;;;;;;8.23;4.38;;;;;;;;;;4991362;28;20049;-63
2022/07/31 03:32:56;;;;;;;4.43;4.03;;;;;;;;;;4974411;28;20062;-63
2022/07/31 03:35:24;;;;;;;9.75;5.00;;;;;;;;;;4991946;28;20081;-63
2022/07/31 03:37:50;;;;;;;6.15;3.85;;;;;;;;;;4991400;28;20050;-63
2022/07/31 03:40:16;;;;;;;6.13;4.38;;;;;;;;;;4974466;28;20030;-63
2022/07/31 03:42:42;;;;;;;4.93;4.20;;;;;;;;;;4991797;28;20416;-63
2022/07/31 03:45:09;;;;;;;6.68;4.43;;;;;;;;;;4973790;28;20034;-63
2022/07/31 03:47:35;;;;;;;5.43;4.32;;;;;;;;;;4973975;28;20124;-63
2022/07/31 03:50:01;;;;;;;6.20;4.50;;;;;;;;;;4973883;28;20109;-64
2022/07/31 03:52:28;;;;;;;6.20;4.28;;;;;;;;;;4976351;28;20039;-64
2022/07/31 03:54:54;;;;;;;5.22;4.05;;;;;;;;;;4995336;28;20073;-63
2022/07/31 03:57:21;;;;;;;4.38;3.95;;;;;;;;;;4977655;28;20027;-63
2022/07/31 03:59:48;;;;;;;4.85;4.25;;;;;;;;;;4977709;28;20551;-63
2022/07/31 04:02:15;;;;;;;4.95;4.05;;;;;;;;;;4995447;28;20065;-63
2022/07/31 04:04:42;;;;;;;6.53;4.78;;;;;;;;;;4994980;28;20050;-63
2022/07/31 04:07:08;;;;;;;5.32;4.03;;;;;;;;;;4977367;28;20485;-63
2022/07/31 04:09:34;;;;;;;7.85;4.38;;;;;;;;;;4995290;28;20043;-63
2022/07/31 04:12:00;;;;;;;4.40;3.83;;;;;;;;;;4977335;28;20453;-64
2022/07/31 04:14:26;;;;;;;5.07;4.43;;;;;;;;;;4994814;28;20050;-64
2022/07/31 04:16:52;;;;;;;6.50;4.05;;;;;;;;;;4994796;28;20053;-64
2022/07/31 04:19:18;;;;;;;4.90;3.97;;;;;;;;;;4977386;28;20080;-64
2022/07/31 04:21:44;;;;;;;6.93;4.15;;;;;;;;;;4994518;28;20118;-64
2022/07/31 04:24:15;;;;;;;5.93;4.15;;;;;;;;;;4977489;28;20053;-64
2022/07/31 04:26:41;;;;;;;4.80;3.47;;;;;;;;;;4977173;28;20404;-64
2022/07/31 04:29:07;;;;;;;7.60;4.03;;;;;;;;;;4976744;28;20386;-64
2022/07/31 04:31:33;;;;;;;6.90;4.18;;;;;;;;;;4994835;28;20049;-64
2022/07/31 04:33:59;;;;;;;6.28;4.20;;;;;;;;;;4994934;28;20042;-64
2022/07/31 04:36:25;;;;;;;10.10;4.00;;;;;;;;;;4976841;28;20069;-64
2022/07/31 04:38:51;;;;;;;5.28;3.60;;;;;;;;;;4977387;28;20062;-64
2022/07/31 04:41:17;;;;;;;7.63;4.10;;;;;;;;;;4977323;28;20042;-64
2022/07/31 04:43:43;;;;;;;5.32;4.05;;;;;;;;;;4976575;28;20038;-64
2022/07/31 04:46:10;;;;;;;7.85;4.00;;;;;;;;;;4976909;28;20097;-64
2022/07/31 04:48:36;;;;;;;8.32;4.43;;;;;;;;;;4994012;28;20060;-64
2022/07/31 04:51:02;;;;;;;6.32;3.90;;;;;;;;;;4993841;28;20429;-64
2022/07/31 04:53:28;;;;;;;5.45;3.85;;;;;;;;;;4977069;28;20069;-64
2022/07/31 04:58:38;;;;;;;5.50;4.05;;;;;;;;;;4993982;28;20042;-64
2022/07/31 05:01:04;;;;;;;5.13;4.30;;;;;;;;;;4994146;28;20045;-64
2022/07/31 05:03:30;;;;;;;6.70;4.13;;;;;;;;;;4976515;28;20046;-64
2022/07/31 05:05:56;;;;;;;6.03;4.03;;;;;;;;;;4976364;28;20469;-64
2022/07/31 05:08:23;;;;;;;6.93;4.35;;;;;;;;;;4976658;28;20043;-64
2022/07/31 05:13:33;;;;;;;13.60;4.35;;;;;;;;;;4976261;28;20767;-64
2022/07/31 05:15:59;;;;;;;5.60;4.30;;;;;;;;;;4994001;28;20041;-64
2022/07/31 05:18:25;;;;;;;7.43;4.03;;;;;;;;;;4993706;28;20109;-64
2022/07/31 05:20:51;;;;;;;4.90;3.85;;;;;;;;;;4993652;28;20425;-64
2022/07/31 05:23:18;;;;;;;7.07;4.75;;;;;;;;;;4976433;28;20046;-64
2022/07/31 05:25:44;;;;;;;7.00;4.30;;;;;;;;;;4993926;28;20464;-64
2022/07/31 05:28:10;;;;;;;6.05;3.97;;;;;;;;;;4993355;28;20061;-64
2022/07/31 05:30:36;;;;;;;7.72;4.63;;;;;;;;;;4993765;28;20046;-64
2022/07/31 05:33:04;;;;;;;7.65;4.72;;;;;;;;;;4976439;28;20042;-64
2022/07/31 05:35:30;;;;;;;8.77;4.40;;;;;;;;;;4975673;28;20050;-64
2022/07/31 05:37:56;;;;;;;7.05;4.65;;;;;;;;;;4976147;28;20044;-64
2022/07/31 05:40:22;;;;;;;6.35;4.60;;;;;;;;;;4993691;28;20050;-64
2022/07/31 05:42:48;;;;;;;6.38;4.72;;;;;;;;;;4975804;28;20066;-64
2022/07/31 05:45:14;;;;;;;9.65;5.60;;;;;;;;;;4993502;28;20062;-64
2022/07/31 05:47:40;;;;;;;5.32;4.82;;;;;;;;;;4975594;28;20050;-64
2022/07/31 05:50:07;;;;;;;10.43;4.97;;;;;;;;;;4975299;28;20054;-64
2022/07/31 05:52:33;;;;;;;10.20;5.32;;;;;;;;;;4993477;28;20484;-64
2022/07/31 05:54:59;;;;;;;5.47;4.55;;;;;;;;;;4993188;28;20053;-64
2022/07/31 05:57:25;;;;;;;8.68;5.03;;;;;;;;;;4992583;28;20499;-64
2022/07/31 05:59:51;;;;;;;5.70;4.68;;;;;;;;;;4976052;28;20050;-64
2022/07/31 06:02:17;;;;;;;8.05;4.90;;;;;;;;;;4975731;28;20050;-64
2022/07/31 06:04:43;;;;;;;9.48;5.10;;;;;;;;;;4992779;28;20633;-64
2022/07/31 06:07:09;;;;;;;8.07;5.22;;;;;;;;;;4993122;28;20100;-64
2022/07/31 06:09:35;;;;;;;6.18;5.03;;;;;;;;;;4975460;28;20038;-64
2022/07/31 06:12:01;;;;;;;5.38;4.55;;;;;;;;;;4992601;28;20042;-64
2022/07/31 06:14:27;;;;;;;9.70;5.20;;;;;;;;;;4992482;28;20070;-64
2022/07/31 06:16:53;;;;;;;6.57;5.30;;;;;;;;;;4975244;28;20418;-64
2022/07/31 06:19:20;;;;;;;6.88;5.15;;;;;;;;;;4992428;28;20053;-64
2022/07/31 06:21:46;;;;;;;8.95;4.80;;;;;;;;;;4975423;28;20465;-64
2022/07/31 06:24:12;;;;;;;6.80;5.50;;;;;;;;;;4992552;28;20038;-64
2022/07/31 06:26:38;;;;;;;7.65;5.50;;;;;;;;;;4974779;28;20047;-64
2022/07/31 06:29:04;;;;;;;8.13;5.80;;;;;;;;;;4975061;28;20053;-64
2022/07/31 06:31:30;;;;;;;6.63;5.88;;;;;;;;;;4992832;28;20450;-64
2022/07/31 06:33:56;;;;;;;8.70;5.88;;;;;;;;;;4974757;28;20077;-64
2022/07/31 06:36:22;;;;;;;9.50;6.32;;;;;;;;;;4992570;28;20121;-64
2022/07/31 06:38:48;;;;;;;8.32;5.93;;;;;;;;;;4992260;28;20780;-63
2022/07/31 06:41:43;;;;;;;6.38;5.60;;;;;;;;;;4974636;28;20048;-63
2022/07/31 06:44:00;;;;;;;7.53;6.22;;;;;;;;;;4992003;28;20042;-64
2022/07/31 06:46:27;;;;;;;9.57;6.90;;;;;;;;;;4991789;28;20053;-63
2022/07/31 06:48:53;;;;;;;8.65;5.80;;;;;;;;;;4974264;28;20161;-63
2022/07/31 06:51:19;;;;;;;6.88;5.28;;;;;;;;;;4974763;28;20067;-64
2022/07/31 06:53:45;;;;;;;7.10;6.00;;;;;;;;;;4974668;28;20097;-64
2022/07/31 06:56:11;;;;;;;12.35;6.45;;;;;;;;;;4974243;28;20454;-64
2022/07/31 06:58:37;;;;;;;7.45;5.50;;;;;;;;;;4992381;28;20050;-64
2022/07/31 07:01:03;;;;;;;10.30;5.47;;;;;;;;;;4992287;28;20039;-64
2022/07/31 07:03:29;;;;;;;8.98;6.22;;;;;;;;;;4991780;28;20041;-64
2022/07/31 07:05:55;;;;;;;9.43;6.00;;;;;;;;;;4974827;28;20129;-64
2022/07/31 07:08:22;;;;;;;6.32;5.40;;;;;;;;;;4974595;28;20039;-64
2022/07/31 07:10:48;;;;;;;9.52;6.05;;;;;;;;;;4974326;28;20050;-64
2022/07/31 07:13:14;;;;;;;6.97;5.68;;;;;;;;;;4992240;28;20121;-64
2022/07/31 07:15:40;;;;;;;12.65;6.53;;;;;;;;;;4991960;28;20074;-64
2022/07/31 07:18:06;;;;;;;11.38;7.90;;;;;;;;;;4991697;28;20049;-64
2022/07/31 07:20:32;;;;;;;9.75;6.50;;;;;;;;;;4992221;28;20351;-64
2022/07/31 07:22:58;;;;;;;10.93;6.68;;;;;;;;;;4991920;28;20656;-64
2022/07/31 07:25:24;;;;;;;7.57;6.35;;;;;;;;;;4991646;28;20046;-64
2022/07/31 07:27:50;;;;;;;7.72;6.82;;;;;;;;;;4977688;28;20043;-64
2022/07/31 07:30:16;;;;;;;13.60;7.28;;;;;;;;;;4978174;28;20054;-64
2022/07/31 07:32:42;;;;;;;10.35;6.97;;;;;;;;;;4977882;28;20046;-64
2022/07/31 07:35:11;;;;;;;10.75;7.45;;;;;;;;;;4978389;28;20046;-64
2022/07/31 07:37:38;;;;;;;10.48;6.57;;;;;;;;;;4978127;28;20038;-64
2022/07/31 07:40:05;;;;;;;10.82;6.95;;;;;;;;;;4977685;28;20042;-64
2022/07/31 07:42:31;;;;;;;9.52;7.65;;;;;;;;;;4978400;28;20048;-64
2022/07/31 07:44:57;;;;;;;11.93;7.05;;;;;;;;;;4961886;28;20078;-64
2022/07/31 07:47:23;;;;;;;9.23;6.93;;;;;;;;;;4976853;28;20062;-64
2022/07/31 07:49:49;;;;;;;10.80;7.65;;;;;;;;;;4994364;28;20054;-64
2022/07/31 07:52:16;;;;;;;11.98;8.02;;;;;;;;;;4994099;28;20096;-64
2022/07/31 07:54:42;;;;;;;11.13;7.50;;;;;;;;;;4994156;28;20045;-64
2022/07/31 07:57:15;;;;;;;10.55;7.20;;;;;;;;;;4994004;28;20046;-64
2022/07/31 07:59:41;;;;;;;10.23;7.75;;;;;;;;;;4994376;28;20370;-64
2022/07/31 08:02:07;;;;;;;10.00;7.85;;;;;;;;;;4976144;28;20053;-64
2022/07/31 08:04:33;;;;;;;14.43;8.48;;;;;;;;;;4976736;28;20053;-64
2022/07/31 08:06:59;;;;;;;12.23;7.47;;;;;;;;;;4994141;28;20458;-64
2022/07/31 08:09:25;;;;;;;11.80;6.82;;;;;;;;;;4994170;28;20108;-64
2022/07/31 08:11:51;;;;;;;11.73;8.07;;;;;;;;;;4976135;28;20043;-64
2022/07/31 08:14:18;;;;;;;9.82;7.38;;;;;;;;;;4993925;28;20490;-64
2022/07/31 08:16:44;;;;;;;13.60;7.80;;;;;;;;;;4993671;28;20046;-64
2022/07/31 08:19:10;;;;;;;14.77;7.50;;;;;;;;;;4975842;28;20046;-64
2022/07/31 08:21:36;;;;;;;10.05;8.35;;;;;;;;;;4976262;28;20105;-64
2022/07/31 08:24:02;;;;;;;12.63;7.45;;;;;;;;;;4976527;28;20050;-64
2022/07/31 08:29:13;;;;;;;8.18;7.38;;;;;;;;;;4993719;28;20046;-64
2022/07/31 08:31:39;;;;;;;13.00;9.10;;;;;;;;;;4993230;28;20469;-64
2022/07/31 08:34:06;;;;;;;11.25;7.75;;;;;;;;;;4975738;28;20050;-64
2022/07/31 08:36:32;;;;;;;12.95;7.80;;;;;;;;;;4976043;28;20465;-64
2022/07/31 08:38:58;;;;;;;12.88;7.80;;;;;;;;;;4993435;28;20046;-64
2022/07/31 08:41:24;;;;;;;9.95;7.05;;;;;;;;;;4993341;28;20504;-64
2022/07/31 08:43:50;;;;;;;11.50;7.13;;;;;;;;;;4993820;28;20038;-64
2022/07/31 08:46:16;;;;;;;10.38;7.15;;;;;;;;;;4975880;28;20596;-64
2022/07/31 08:48:43;;;;;;;8.63;7.13;;;;;;;;;;4956968;28;1073794;-64
2022/07/31 08:51:11;;;;;;;14.13;7.93;;;;;;;;;;4994394;28;20332;-64
2022/07/31 08:53:38;;;;;;;9.70;7.15;;;;;;;;;;4977031;28;20038;-64
2022/07/31 08:56:07;;;;;;;11.00;7.63;;;;;;;;;;4994181;28;20043;-64
2022/07/31 08:58:33;;;;;;;13.73;7.65;;;;;;;;;;4994543;28;20053;-64
2022/07/31 09:01:00;;;;;;;10.98;8.23;;;;;;;;;;4976813;28;20046;-64
2022/07/31 09:03:26;;;;;;;11.15;7.78;;;;;;;;;;4993711;28;20054;-64
2022/07/31 09:05:52;;;;;;;11.30;7.63;;;;;;;;;;4976905;28;20058;-64
2022/07/31 09:08:18;;;;;;;13.13;7.50;;;;;;;;;;4976495;28;20038;-64
2022/07/31 09:10:45;;;;;;;11.00;8.00;;;;;;;;;;4993723;28;20042;-64
2022/07/31 09:13:15;;;;;;;12.27;8.48;;;;;;;;;;4976447;28;20031;-64
2022/07/31 09:15:42;;;;;;;11.57;8.93;;;;;;;;;;4976418;28;20086;-64
2022/07/31 09:18:18;;;;;;;12.45;8.30;;;;;;;;;;4993542;28;20035;-64
2022/07/31 09:20:58;;;;;;;15.75;9.27;;;;;;;;;;4976628;28;20074;-64
2022/07/31 09:23:25;;;;;;;12.85;8.10;;;;;;;;;;4994068;28;20037;-64
2022/07/31 09:25:59;;;;;;;12.82;8.23;;;;;;;;;;4993460;28;20042;-64
2022/07/31 09:28:45;;;;;;;14.85;8.93;;;;;;;;;;4976123;28;20046;-64
2022/07/31 09:31:12;;;;;;;16.63;8.45;;;;;;;;;;4975667;28;20047;-64
2022/07/31 09:33:39;;;;;;;10.38;8.13;;;;;;;;;;4993922;28;20466;-64
2022/07/31 09:36:06;;;;;;;12.63;8.60;;;;;;;;;;4993512;28;20096;-64
2022/07/31 09:38:34;;;;;;;12.57;8.52;;;;;;;;;;4975720;28;20097;-64
2022/07/31 09:41:09;;;;;;;12.43;9.50;;;;;;;;;;4993501;28;20056;-64
2022/07/31 09:43:36;;;;;;;12.88;9.15;;;;;;;;;;4976198;28;20034;-64
2022/07/31 09:46:03;;;;;;;12.48;8.85;;;;;;;;;;4993135;28;20039;-64
2022/07/31 09:48:30;;;;;;;13.45;8.93;;;;;;;;;;4992527;28;20050;-64
2022/07/31 09:50:56;;;;;;;15.63;9.45;;;;;;;;;;4975452;28;20105;-64
2022/07/31 09:53:23;;;;;;;13.05;10.10;;;;;;;;;;4992752;28;20511;-64
2022/07/31 09:55:53;;;;;;;13.55;9.90;;;;;;;;;;4975848;28;20046;-64
2022/07/31 09:58:19;;;;;;;11.77;9.25;;;;;;;;;;4975466;28;20042;-64
2022/07/31 10:00:50;;;;;;;14.98;10.05;;;;;;;;;;4975270;28;20497;-64
2022/07/31 10:03:17;;;;;;;16.27;11.35;;;;;;;;;;4992872;28;20038;-64
2022/07/31 10:05:44;;;;;;;15.95;10.77;;;;;;;;;;4993268;28;20085;-64
2022/07/31 10:08:11;;;;;;;14.27;10.77;;;;;;;;;;4974794;28;20047;-64
2022/07/31 10:10:37;;;;;;;14.20;10.45;;;;;;;;;;4993260;28;20069;-64
2022/07/31 10:13:06;;;;;;;13.18;10.50;;;;;;;;;;4992964;28;20495;-64
2022/07/31 10:15:33;;;;;;;15.48;10.93;;;;;;;;;;4975095;28;20421;-64
2022/07/31 10:18:01;;;;;;;14.45;11.35;;;;;;;;;;4975134;28;20038;-64
2022/07/31 10:20:27;;;;;;;12.77;10.75;;;;;;;;;;4975565;28;20054;-64
2022/07/31 10:22:56;;;;;;;14.27;11.45;;;;;;;;;;4992324;28;20050;-64
2022/07/31 10:25:27;;;;;;;15.43;10.20;;;;;;;;;;4975196;28;20072;-64
2022/07/31 10:27:55;;;;;;;12.45;10.40;;;;;;;;;;4975032;28;20054;-64
2022/07/31 10:30:22;;;;;;;11.68;9.38;;;;;;;;;;4992203;28;20068;-64
2022/07/31 10:32:49;;;;;;;10.07;9.07;;;;;;;;;;4975028;28;20108;-64
2022/07/31 10:35:16;;;;;;;16.23;10.85;;;;;;;;;;4975316;28;20473;-64
2022/07/31 10:37:50;;;;;;;12.65;10.18;;;;;;;;;;4991896;28;20053;-64
2022/07/31 10:40:33;;;;;;;12.30;9.88;;;;;;;;;;4959113;28;20097;-64
2022/07/31 10:43:19;;;;;;;12.60;10.75;;;;;;;;;;4975117;28;20477;-64
2022/07/31 10:45:45;;;;;;;14.98;11.20;;;;;;;;;;4992089;28;20694;-64
2022/07/31 10:48:11;;;;;;;12.20;10.88;;;;;;;;;;4974486;28;20068;-64
2022/07/31 10:50:37;;;;;;;13.63;10.38;;;;;;;;;;4974824;28;20059;-64
2022/07/31 10:53:10;;;;;;;15.15;11.27;;;;;;;;;;4992267;28;20039;-64
2022/07/31 10:55:37;;;;;;;14.40;12.45;;;;;;;;;;4974905;28;20049;-64
2022/07/31 10:58:18;;;;;;;11.90;10.15;;;;;;;;;;4974500;28;20105;-64
2022/07/31 11:00:44;;;;;;;14.95;12.40;;;;;;;;;;4992113;28;20049;-64
2022/07/31 11:03:13;;;;;;;20.38;12.02;;;;;;;;;;4975235;28;20042;-64
2022/07/31 11:05:39;;;;;;;17.00;11.48;;;;;;;;;;4974689;28;20045;-64
2022/07/31 11:08:06;;;;;;;13.52;11.00;;;;;;;;;;4991602;28;20404;-64
2022/07/31 11:10:33;;;;;;;15.27;11.40;;;;;;;;;;4992182;28;20128;-64
2022/07/31 11:13:11;;;;;;;14.13;11.77;;;;;;;;;;4992271;28;20066;-64
2022/07/31 11:15:37;;;;;;;12.90;10.55;;;;;;;;;;4974137;28;20440;-64
2022/07/31 11:18:13;;;;;;;13.00;10.68;;;;;;;;;;4974700;28;20126;-64
2022/07/31 11:20:45;;;;;;;19.50;10.60;;;;;;;;;;4992270;28;20669;-64
2022/07/31 11:23:14;;;;;;;17.17;11.45;;;;;;;;;;4991837;28;20050;-64
2022/07/31 11:25:40;;;;;;;17.58;11.98;;;;;;;;;;4974336;28;20041;-64
2022/07/31 11:28:10;;;;;;;17.90;12.68;;;;;;;;;;4974090;28;20497;-64
2022/07/31 11:30:49;;;;;;;15.60;12.02;;;;;;;;;;4991611;28;20516;-64
2022/07/31 11:33:15;;;;;;;16.50;12.82;;;;;;;;;;4974492;28;20058;-64
2022/07/31 11:35:42;;;;;;;17.85;13.15;;;;;;;;;;4992139;28;20038;-64
2022/07/31 11:38:08;;;;;;;19.13;14.10;;;;;;;;;;4973789;28;20050;-64
2022/07/31 11:40:34;;;;;;;19.73;15.02;;;;;;;;;;4991942;28;20053;-64
2022/07/31 11:43:00;;;;;;;17.83;14.90;;;;;;;;;;4991900;28;20658;-64
2022/07/31 11:45:26;;;;;;;18.42;14.45;;;;;;;;;;4991391;28;20051;-64
2022/07/31 11:47:52;;;;;;;19.85;15.05;;;;;;;;;;4974188;28;20122;-64
2022/07/31 11:50:18;;;;;;;22.08;15.38;;;;;;;;;;4991882;28;20084;-64
2022/07/31 11:52:46;;;;;;;19.38;15.32;;;;;;;;;;4991372;28;20053;-64
2022/07/31 11:55:13;;;;;;;22.88;15.60;;;;;;;;;;4991939;28;20089;-64
2022/07/31 11:57:39;;;;;;;22.15;17.00;;;;;;;;;;4991743;28;20509;-64
2022/07/31 12:00:10;;;;;;;22.02;16.75;;;;;;;;;;4991078;28;20046;-64
2022/07/31 12:02:39;;;;;;;22.55;16.95;;;;;;;;;;4991593;28;20121;-64
2022/07/31 12:05:05;;;;;;;21.80;17.55;;;;;;;;;;4974390;28;20382;-64
2022/07/31 12:07:31;;;;;;;22.42;17.65;;;;;;;;;;4991392;28;20050;-64
2022/07/31 12:09:57;;;;;;;24.33;18.77;;;;;;;;;;4991690;28;20524;-64
2022/07/31 12:12:24;;;;;;;25.10;18.52;;;;;;;;;;4992714;28;20042;-64
2022/07/31 12:14:50;;;;;;;25.00;18.58;;;;;;;;;;4977670;28;20042;-64
2022/07/31 12:17:20;;;;;;;23.02;18.67;;;;;;;;;;4995371;28;20421;-64
2022/07/31 12:19:46;;;;;;;25.15;19.35;;;;;;;;;;4995350;28;20061;-64
2022/07/31 12:22:19;;;;;;;24.33;19.10;;;;;;;;;;4994984;28;20044;-64
2022/07/31 12:24:46;;;;;;;29.25;21.15;;;;;;;;;;4977771;28;20549;-64
2022/07/31 12:27:17;;;;;;;29.10;21.98;;;;;;;;;;4994921;28;20074;-64
2022/07/31 12:29:43;;;;;;;27.73;21.52;;;;;;;;;;4977078;28;20046;-64
2022/07/31 12:32:10;;;;;;;27.65;22.90;;;;;;;;;;4994688;28;20074;-64
2022/07/31 12:34:37;;;;;;;29.33;23.13;;;;;;;;;;4995043;28;20135;-64
2022/07/31 12:37:15;;;;;;;28.83;22.38;;;;;;;;;;4976999;28;20092;-64
2022/07/31 12:39:48;;;;;;;32.90;24.55;;;;;;;;;;4994772;28;20039;-64
2022/07/31 12:42:28;;;;;;;34.20;23.05;;;;;;;;;;4994803;28;20062;-64
2022/07/31 12:44:56;;;;;;;30.90;22.80;;;;;;;;;;4976962;28;20133;-64
2022/07/31 12:47:26;;;;;;;28.75;23.05;;;;;;;;;;4994327;28;20058;-64
2022/07/31 12:49:52;;;;;;;30.30;25.05;;;;;;;;;;4994578;28;20437;-64
2022/07/31 12:52:18;;;;;;;29.60;25.00;;;;;;;;;;4976453;28;20042;-64
2022/07/31 12:54:44;;;;;;;31.88;23.70;;;;;;;;;;4994706;28;20057;-64
2022/07/31 12:57:11;;;;;;;27.40;23.58;;;;;;;;;;4994159;28;20117;-64
2022/07/31 12:59:37;;;;;;;31.25;23.23;;;;;;;;;;4976731;28;20061;-64
2022/07/31 13:02:03;;;;;;;31.80;23.55;;;;;;;;;;4976685;28;20050;-64
2022/07/31 13:04:30;;;;;;;30.63;23.67;;;;;;;;;;4976939;28;20074;-64
2022/07/31 13:06:56;;;;;;;35.25;24.08;;;;;;;;;;4976160;28;20050;-64
2022/07/31 13:09:22;;;;;;;35.00;25.10;;;;;;;;;;4976607;28;20042;-64
2022/07/31 13:11:49;;;;;;;28.73;22.00;;;;;;;;;;4976525;28;20050;-64
2022/07/31 13:14:16;;;;;;;32.00;24.20;;;;;;;;;;4993564;28;20045;-64
2022/07/31 13:16:42;;;;;;;24.95;21.88;;;;;;;;;;4976509;28;20042;-64
2022/07/31 13:19:08;;;;;;;36.28;24.35;;;;;;;;;;4994071;28;20054;-64
2022/07/31 13:21:34;;;;;;;29.85;23.30;;;;;;;;;;4993620;28;20046;-64
2022/07/31 13:24:00;;;;;;;28.13;22.10;;;;;;;;;;4992942;28;20077;-64
2022/07/31 13:26:26;;;;;;;24.80;21.40;;;;;;;;;;4993729;28;20076;-64
2022/07/31 13:28:52;;;;;;;26.70;21.17;;;;;;;;;;4993583;28;20146;-64
2022/07/31 13:31:18;;;;;;;28.00;21.73;;;;;;;;;;4993506;28;20038;-65
2022/07/31 13:33:44;;;;;;;26.15;21.13;;;;;;;;;;4976415;28;20524;-64
2022/07/31 13:36:10;;;;;;;29.23;20.77;;;;;;;;;;4993297;28;20126;-64
2022/07/31 13:38:37;;;;;;;26.52;18.67;;;;;;;;;;4993705;28;20046;-64
2022/07/31 13:43:47;;;;;;;24.17;17.48;;;;;;;;;;4973883;28;20046;-65
2022/07/31 13:46:13;;;;;;;19.40;14.90;;;;;;;;;;4973863;28;20050;-64
2022/07/31 13:48:39;;;;;;;16.60;13.85;;;;;;;;;;4973740;28;20062;-64
2022/07/31 13:51:06;;;;;;;13.50;11.55;;;;;;;;;;4956164;28;20150;-64
2022/07/31 13:53:32;;;;;;;11.85;10.38;;;;;;;;;;4974113;28;20081;-64
2022/07/31 13:55:58;;;;;;;12.80;9.50;;;;;;;;;;4973735;28;20747;-64
2022/07/31 13:58:26;;;;;;;8.32;7.13;;;;;;;;;;4973150;28;20042;-64
2022/07/31 14:00:52;;;;;;;8.45;7.07;;;;;;;;;;4973656;28;20042;-64
2022/07/31 14:03:18;;;;;;;7.32;6.63;;;;;;;;;;4973966;28;20090;-64
2022/07/31 14:05:44;;;;;;;9.02;7.35;;;;;;;;;;4956074;28;20054;-65
2022/07/31 14:08:10;;;;;;;10.63;7.38;;;;;;;;;;4956386;28;20043;-64
2022/07/31 14:10:36;;;;;;;11.00;7.88;;;;;;;;;;4956063;28;20043;-64
2022/07/31 14:13:03;;;;;;;10.05;8.25;;;;;;;;;;4973349;28;20039;-65
2022/07/31 14:15:29;;;;;;;8.18;7.07;;;;;;;;;;4973740;28;20383;-64
2022/07/31 14:17:55;;;;;;;11.77;7.50;;;;;;;;;;4973188;28;20038;-64
2022/07/31 14:20:21;;;;;;;8.63;7.18;;;;;;;;;;4973205;28;20481;-64
2022/07/31 14:22:47;;;;;;;8.73;7.80;;;;;;;;;;4973292;28;20469;-64
2022/07/31 14:25:13;;;;;;;8.73;7.28;;;;;;;;;;4958484;28;20064;-64
2022/07/31 14:27:39;;;;;;;10.95;7.57;;;;;;;;;;4992226;28;20042;-64
2022/07/31 14:30:06;;;;;;;8.57;7.10;;;;;;;;;;4974992;28;20046;-64
2022/07/31 14:32:32;;;;;;;7.85;7.10;;;;;;;;;;4992813;28;20051;-65
2022/07/31 14:34:58;;;;;;;10.35;8.00;;;;;;;;;;4958463;28;20113;-64
2022/07/31 14:37:24;;;;;;;8.60;7.70;;;;;;;;;;4975098;28;20077;-64
2022/07/31 14:39:51;;;;;;;11.35;8.43;;;;;;;;;;4974912;28;20644;-64
2022/07/31 14:42:18;;;;;;;9.93;7.35;;;;;;;;;;4992040;28;20044;-64
2022/07/31 14:44:44;;;;;;;6.85;6.15;;;;;;;;;;4975290;28;20046;-64